Accueil
METAR-TAF:

METAR-TAF

Aéroports :

Grenoble, France

Aéroport de Grenoble-Isère

latitude: 45-22N, longitude: 005-20E, altitude: 384 m

Observation

Le bulletin a été fait il y a 20 minutes, à 08:30 UTC
Vent 1 kt de direction variable
Température 22°C
Humidité 50%
Pression 1021 hPa
Visibilité 10 km ou plus
pas de nuages en-dessous de 1500 mètres et pas de cumulonimbus.

METAR: LFLS 230830Z AUTO VRB01KT CAVOK 22/11 Q1021 NOSIG

Heure: 10:50 (08:50 UTC)

Prévision

Le bulletin a été fait il y a 50 minutes, à 08:00 UTC
Prévision valable du 23 à 09 UTC au 24 à 09 UTC
Vent 7 kt de nord
Visibilité 10 km ou plus
pas de nuages en-dessous de 1500 mètres et pas de cumulonimbus.
Temporairement
du 23 à 12 UTC au 23 à 18 UTC
Nuages épars à une hauteur de 4000 ft
Temporairement
du 24 à 00 UTC au 24 à 08 UTC
Vent 2 kt de direction variable

TAF: LFLS 230800Z 2309/2409 35007KT CAVOK TEMPO 2312/2318 SCT040 TEMPO 2400/2408 VRB02KT

Observations et prévisions météorologiques de plus de 4000 aéroports (messages METAR et TAF).

Les stations disponibles sont représentées par des disques jaunes et rouges sur la carte.

Passer la souris dessus pour voir le nom de la station.

Cliquer dessus pour voir les observations et prévisions météorologiques.

Pour changer de carte: cliquez sur les boutons verts avec une croix noire pour zoomer, sur le bouton vert avec un tiret pour effectuer un zoom arrière, ou sur les flèches vertes pour les cartes adjacentes.


METAR-TAF: